sensor_id;sensor_type;location;lat;lon;timestamp;P1;durP1;ratioP1;P2;durP2;ratioP2
46875;SDS011;32866;50.160;14.768;2023-03-01T00:01:34;66.25;;;28.40;;
46875;SDS011;32866;50.160;14.768;2023-03-01T00:03:59;55.00;;;28.02;;
46875;SDS011;32866;50.160;14.768;2023-03-01T00:06:25;64.15;;;29.33;;
46875;SDS011;32866;50.160;14.768;2023-03-01T00:08:51;57.43;;;28.03;;
46875;SDS011;32866;50.160;14.768;2023-03-01T00:14:01;58.93;;;25.67;;
46875;SDS011;32866;50.160;14.768;2023-03-01T00:16:31;61.00;;;27.47;;
46875;SDS011;32866;50.160;14.768;2023-03-01T00:19:00;60.37;;;28.00;;
46875;SDS011;32866;50.160;14.768;2023-03-01T00:21:26;49.05;;;27.75;;
46875;SDS011;32866;50.160;14.768;2023-03-01T00:26:18;59.17;;;26.73;;
46875;SDS011;32866;50.160;14.768;2023-03-01T00:28:45;51.87;;;27.30;;
46875;SDS011;32866;50.160;14.768;2023-03-01T00:33:41;60.30;;;26.97;;
46875;SDS011;32866;50.160;14.768;2023-03-01T00:36:07;62.33;;;28.90;;
46875;SDS011;32866;50.160;14.768;2023-03-01T00:38:35;61.90;;;27.73;;
46875;SDS011;32866;50.160;14.768;2023-03-01T00:41:07;65.80;;;31.27;;
46875;SDS011;32866;50.160;14.768;2023-03-01T00:43:33;68.83;;;32.30;;
46875;SDS011;32866;50.160;14.768;2023-03-01T00:46:02;70.03;;;31.70;;
46875;SDS011;32866;50.160;14.768;2023-03-01T00:48:28;76.13;;;34.93;;
46875;SDS011;32866;50.160;14.768;2023-03-01T00:53:19;73.60;;;32.80;;
46875;SDS011;32866;50.160;14.768;2023-03-01T00:58:09;80.07;;;31.57;;
46875;SDS011;32866;50.160;14.768;2023-03-01T01:03:00;70.87;;;27.47;;
46875;SDS011;32866;50.160;14.768;2023-03-01T01:05:26;72.20;;;32.08;;
46875;SDS011;32866;50.160;14.768;2023-03-01T01:07:51;64.15;;;31.17;;
46875;SDS011;32866;50.160;14.768;2023-03-01T01:10:16;78.10;;;33.85;;
46875;SDS011;32866;50.160;14.768;2023-03-01T01:12:43;69.75;;;31.73;;
46875;SDS011;32866;50.160;14.768;2023-03-01T01:15:09;67.73;;;30.53;;
46875;SDS011;32866;50.160;14.768;2023-03-01T01:17:37;67.23;;;32.60;;
46875;SDS011;32866;50.160;14.768;2023-03-01T01:20:03;64.10;;;33.25;;
46875;SDS011;32866;50.160;14.768;2023-03-01T01:24:54;57.23;;;28.03;;
46875;SDS011;32866;50.160;14.768;2023-03-01T01:29:44;62.83;;;26.27;;
46875;SDS011;32866;50.160;14.768;2023-03-01T01:32:10;58.47;;;29.27;;
46875;SDS011;32866;50.160;14.768;2023-03-01T01:34:35;60.38;;;28.27;;
46875;SDS011;32866;50.160;14.768;2023-03-01T01:37:00;62.67;;;27.13;;
46875;SDS011;32866;50.160;14.768;2023-03-01T01:39:27;61.50;;;28.40;;
46875;SDS011;32866;50.160;14.768;2023-03-01T01:52:54;73.77;;;30.73;;
46875;SDS011;32866;50.160;14.768;2023-03-01T01:55:10;73.27;;;30.23;;
46875;SDS011;32866;50.160;14.768;2023-03-01T02:00:14;66.03;;;30.83;;
46875;SDS011;32866;50.160;14.768;2023-03-01T02:02:44;68.57;;;31.63;;
46875;SDS011;32866;50.160;14.768;2023-03-01T02:05:17;64.50;;;31.33;;
46875;SDS011;32866;50.160;14.768;2023-03-01T02:07:44;54.77;;;27.63;;
46875;SDS011;32866;50.160;14.768;2023-03-01T02:10:11;57.17;;;28.27;;
46875;SDS011;32866;50.160;14.768;2023-03-01T02:12:36;64.13;;;28.42;;
46875;SDS011;32866;50.160;14.768;2023-03-01T02:15:03;63.70;;;28.87;;
46875;SDS011;32866;50.160;14.768;2023-03-01T02:17:29;51.33;;;26.48;;
46875;SDS011;32866;50.160;14.768;2023-03-01T02:22:30;57.90;;;28.37;;
46875;SDS011;32866;50.160;14.768;2023-03-01T02:30:48;49.13;;;24.50;;
46875;SDS011;32866;50.160;14.768;2023-03-01T02:33:34;66.60;;;28.53;;
46875;SDS011;32866;50.160;14.768;2023-03-01T02:36:09;55.50;;;27.33;;
46875;SDS011;32866;50.160;14.768;2023-03-01T02:38:39;51.50;;;27.10;;
46875;SDS011;32866;50.160;14.768;2023-03-01T02:41:06;64.23;;;27.73;;
46875;SDS011;32866;50.160;14.768;2023-03-01T02:43:33;68.00;;;25.90;;
46875;SDS011;32866;50.160;14.768;2023-03-01T02:46:02;65.13;;;29.27;;
46875;SDS011;32866;50.160;14.768;2023-03-01T02:51:18;54.90;;;25.60;;
46875;SDS011;32866;50.160;14.768;2023-03-01T02:56:53;60.83;;;27.47;;
46875;SDS011;32866;50.160;14.768;2023-03-01T02:59:19;53.30;;;25.52;;
46875;SDS011;32866;50.160;14.768;2023-03-01T03:01:47;59.90;;;27.07;;
46875;SDS011;32866;50.160;14.768;2023-03-01T03:04:14;62.03;;;27.23;;
46875;SDS011;32866;50.160;14.768;2023-03-01T03:06:45;58.20;;;27.80;;
46875;SDS011;32866;50.160;14.768;2023-03-01T03:09:12;55.83;;;26.50;;
46875;SDS011;32866;50.160;14.768;2023-03-01T03:11:39;53.13;;;27.87;;
46875;SDS011;32866;50.160;14.768;2023-03-01T03:14:05;63.40;;;28.70;;
46875;SDS011;32866;50.160;14.768;2023-03-01T03:16:38;57.27;;;27.17;;
46875;SDS011;32866;50.160;14.768;2023-03-01T03:19:08;57.57;;;30.33;;
46875;SDS011;32866;50.160;14.768;2023-03-01T03:21:33;57.50;;;26.02;;
46875;SDS011;32866;50.160;14.768;2023-03-01T03:23:59;55.07;;;27.37;;
46875;SDS011;32866;50.160;14.768;2023-03-01T03:26:24;51.70;;;25.75;;
46875;SDS011;32866;50.160;14.768;2023-03-01T03:31:15;45.10;;;23.50;;
46875;SDS011;32866;50.160;14.768;2023-03-01T03:33:41;57.60;;;26.25;;
46875;SDS011;32866;50.160;14.768;2023-03-01T03:36:06;49.95;;;25.55;;
46875;SDS011;32866;50.160;14.768;2023-03-01T03:38:38;48.43;;;25.73;;
46875;SDS011;32866;50.160;14.768;2023-03-01T03:41:05;52.77;;;25.83;;
46875;SDS011;32866;50.160;14.768;2023-03-01T03:43:33;49.03;;;24.43;;
46875;SDS011;32866;50.160;14.768;2023-03-01T03:46:00;49.33;;;22.67;;
46875;SDS011;32866;50.160;14.768;2023-03-01T03:48:26;47.72;;;23.48;;
46875;SDS011;32866;50.160;14.768;2023-03-01T03:53:18;52.45;;;24.23;;
46875;SDS011;32866;50.160;14.768;2023-03-01T03:55:45;60.83;;;26.87;;
46875;SDS011;32866;50.160;14.768;2023-03-01T03:58:14;54.33;;;26.60;;
46875;SDS011;32866;50.160;14.768;2023-03-01T04:05:33;53.77;;;21.67;;
46875;SDS011;32866;50.160;14.768;2023-03-01T04:10:28;53.47;;;24.43;;
46875;SDS011;32866;50.160;14.768;2023-03-01T04:12:55;53.93;;;25.50;;
46875;SDS011;32866;50.160;14.768;2023-03-01T04:15:21;61.65;;;25.35;;
46875;SDS011;32866;50.160;14.768;2023-03-01T04:17:49;50.40;;;24.97;;
46875;SDS011;32866;50.160;14.768;2023-03-01T04:20:16;60.27;;;25.83;;
46875;SDS011;32866;50.160;14.768;2023-03-01T04:22:50;58.73;;;28.27;;
46875;SDS011;32866;50.160;14.768;2023-03-01T04:25:17;50.93;;;27.57;;
46875;SDS011;32866;50.160;14.768;2023-03-01T04:27:43;56.20;;;25.00;;
46875;SDS011;32866;50.160;14.768;2023-03-01T04:32:34;50.97;;;25.77;;
46875;SDS011;32866;50.160;14.768;2023-03-01T04:37:25;45.13;;;21.97;;
46875;SDS011;32866;50.160;14.768;2023-03-01T04:42:15;49.97;;;22.07;;
46875;SDS011;32866;50.160;14.768;2023-03-01T04:44:41;46.60;;;23.60;;
46875;SDS011;32866;50.160;14.768;2023-03-01T04:47:07;52.13;;;24.35;;
46875;SDS011;32866;50.160;14.768;2023-03-01T04:49:33;52.40;;;24.35;;
46875;SDS011;32866;50.160;14.768;2023-03-01T04:51:58;55.45;;;25.25;;
46875;SDS011;32866;50.160;14.768;2023-03-01T04:54:26;48.30;;;24.23;;
46875;SDS011;32866;50.160;14.768;2023-03-01T04:56:56;56.13;;;23.80;;
46875;SDS011;32866;50.160;14.768;2023-03-01T04:59:22;45.05;;;24.23;;
46875;SDS011;32866;50.160;14.768;2023-03-01T05:04:16;51.63;;;22.17;;
46875;SDS011;32866;50.160;14.768;2023-03-01T05:06:41;50.08;;;24.02;;
46875;SDS011;32866;50.160;14.768;2023-03-01T05:11:32;49.50;;;20.73;;
46875;SDS011;32866;50.160;14.768;2023-03-01T05:14:01;53.47;;;23.77;;
46875;SDS011;32866;50.160;14.768;2023-03-01T05:16:27;54.33;;;25.97;;
46875;SDS011;32866;50.160;14.768;2023-03-01T05:18:52;48.53;;;24.80;;
46875;SDS011;32866;50.160;14.768;2023-03-01T05:21:20;53.87;;;24.73;;
46875;SDS011;32866;50.160;14.768;2023-03-01T05:23:46;52.90;;;24.58;;
46875;SDS011;32866;50.160;14.768;2023-03-01T05:26:12;49.10;;;24.92;;
46875;SDS011;32866;50.160;14.768;2023-03-01T05:28:38;52.53;;;25.77;;
46875;SDS011;32866;50.160;14.768;2023-03-01T05:31:04;53.83;;;24.40;;
46875;SDS011;32866;50.160;14.768;2023-03-01T05:33:35;52.20;;;24.90;;
46875;SDS011;32866;50.160;14.768;2023-03-01T05:36:02;49.73;;;25.47;;
46875;SDS011;32866;50.160;14.768;2023-03-01T05:38:28;53.22;;;24.52;;
46875;SDS011;32866;50.160;14.768;2023-03-01T05:40:53;48.67;;;24.13;;
46875;SDS011;32866;50.160;14.768;2023-03-01T05:45:44;45.70;;;22.60;;
46875;SDS011;32866;50.160;14.768;2023-03-01T05:48:10;52.58;;;23.58;;
46875;SDS011;32866;50.160;14.768;2023-03-01T05:50:40;55.27;;;25.87;;
46875;SDS011;32866;50.160;14.768;2023-03-01T05:53:09;56.67;;;26.80;;
46875;SDS011;32866;50.160;14.768;2023-03-01T05:55:42;55.60;;;27.50;;
46875;SDS011;32866;50.160;14.768;2023-03-01T05:58:12;60.07;;;28.37;;
46875;SDS011;32866;50.160;14.768;2023-03-01T06:00:39;65.90;;;30.37;;
46875;SDS011;32866;50.160;14.768;2023-03-01T06:03:05;65.53;;;30.57;;
46875;SDS011;32866;50.160;14.768;2023-03-01T06:05:31;67.07;;;32.67;;
46875;SDS011;32866;50.160;14.768;2023-03-01T06:10:23;60.38;;;27.60;;
46875;SDS011;32866;50.160;14.768;2023-03-01T06:15:14;56.23;;;26.70;;
46875;SDS011;32866;50.160;14.768;2023-03-01T06:17:42;60.63;;;29.40;;
46875;SDS011;32866;50.160;14.768;2023-03-01T06:20:10;56.07;;;28.70;;
46875;SDS011;32866;50.160;14.768;2023-03-01T06:22:37;67.57;;;30.37;;
46875;SDS011;32866;50.160;14.768;2023-03-01T06:25:03;68.75;;;29.10;;
46875;SDS011;32866;50.160;14.768;2023-03-01T06:27:29;67.30;;;30.60;;
46875;SDS011;32866;50.160;14.768;2023-03-01T06:29:55;73.57;;;32.65;;
46875;SDS011;32866;50.160;14.768;2023-03-01T06:32:20;74.00;;;32.13;;
46875;SDS011;32866;50.160;14.768;2023-03-01T06:34:45;69.27;;;32.60;;
46875;SDS011;32866;50.160;14.768;2023-03-01T06:37:11;83.28;;;36.40;;
46875;SDS011;32866;50.160;14.768;2023-03-01T06:39:36;72.80;;;35.45;;
46875;SDS011;32866;50.160;14.768;2023-03-01T06:42:02;73.35;;;34.63;;
46875;SDS011;32866;50.160;14.768;2023-03-01T06:44:27;69.03;;;33.55;;
46875;SDS011;32866;50.160;14.768;2023-03-01T06:46:53;67.05;;;32.47;;
46875;SDS011;32866;50.160;14.768;2023-03-01T06:49:19;59.05;;;30.05;;
46875;SDS011;32866;50.160;14.768;2023-03-01T06:51:45;64.82;;;32.15;;
46875;SDS011;32866;50.160;14.768;2023-03-01T06:56:36;65.87;;;29.80;;
46875;SDS011;32866;50.160;14.768;2023-03-01T06:59:02;67.80;;;32.22;;
46875;SDS011;32866;50.160;14.768;2023-03-01T07:01:28;59.67;;;26.65;;
46875;SDS011;32866;50.160;14.768;2023-03-01T07:03:54;60.83;;;26.93;;
46875;SDS011;32866;50.160;14.768;2023-03-01T07:06:19;52.45;;;26.85;;
46875;SDS011;32866;50.160;14.768;2023-03-01T07:08:45;46.92;;;23.48;;
46875;SDS011;32866;50.160;14.768;2023-03-01T07:11:11;47.03;;;22.90;;
46875;SDS011;32866;50.160;14.768;2023-03-01T07:13:37;40.97;;;23.03;;
46875;SDS011;32866;50.160;14.768;2023-03-01T07:16:02;42.88;;;21.13;;
46875;SDS011;32866;50.160;14.768;2023-03-01T07:18:27;40.58;;;19.80;;
46875;SDS011;32866;50.160;14.768;2023-03-01T07:20:53;38.30;;;21.58;;
46875;SDS011;32866;50.160;14.768;2023-03-01T07:23:18;40.00;;;21.48;;
46875;SDS011;32866;50.160;14.768;2023-03-01T07:25:44;36.92;;;20.08;;
46875;SDS011;32866;50.160;14.768;2023-03-01T07:28:09;37.05;;;21.65;;
46875;SDS011;32866;50.160;14.768;2023-03-01T07:30:35;38.63;;;21.70;;
46875;SDS011;32866;50.160;14.768;2023-03-01T07:33:00;38.50;;;20.63;;
46875;SDS011;32866;50.160;14.768;2023-03-01T07:35:26;35.55;;;20.35;;
46875;SDS011;32866;50.160;14.768;2023-03-01T07:37:52;36.70;;;22.57;;
46875;SDS011;32866;50.160;14.768;2023-03-01T07:40:18;41.45;;;22.35;;
46875;SDS011;32866;50.160;14.768;2023-03-01T07:42:44;36.75;;;19.05;;
46875;SDS011;32866;50.160;14.768;2023-03-01T07:45:10;29.20;;;17.13;;
46875;SDS011;32866;50.160;14.768;2023-03-01T07:47:37;36.33;;;19.37;;
46875;SDS011;32866;50.160;14.768;2023-03-01T07:50:02;32.97;;;20.05;;
46875;SDS011;32866;50.160;14.768;2023-03-01T07:52:29;34.80;;;19.83;;
46875;SDS011;32866;50.160;14.768;2023-03-01T07:54:54;43.67;;;20.45;;
46875;SDS011;32866;50.160;14.768;2023-03-01T07:57:19;36.88;;;20.60;;
46875;SDS011;32866;50.160;14.768;2023-03-01T07:59:45;38.92;;;19.80;;
46875;SDS011;32866;50.160;14.768;2023-03-01T08:02:10;38.60;;;20.42;;
46875;SDS011;32866;50.160;14.768;2023-03-01T08:04:36;33.80;;;19.98;;
46875;SDS011;32866;50.160;14.768;2023-03-01T08:07:04;30.92;;;18.00;;
46875;SDS011;32866;50.160;14.768;2023-03-01T08:09:30;32.40;;;20.17;;
46875;SDS011;32866;50.160;14.768;2023-03-01T08:11:56;37.47;;;20.10;;
46875;SDS011;32866;50.160;14.768;2023-03-01T08:14:24;42.13;;;20.97;;
46875;SDS011;32866;50.160;14.768;2023-03-01T08:16:50;48.65;;;26.17;;
46875;SDS011;32866;50.160;14.768;2023-03-01T08:19:15;40.20;;;22.23;;
46875;SDS011;32866;50.160;14.768;2023-03-01T08:21:41;36.53;;;20.38;;
46875;SDS011;32866;50.160;14.768;2023-03-01T08:24:06;34.80;;;22.05;;
46875;SDS011;32866;50.160;14.768;2023-03-01T08:28:59;37.27;;;18.93;;
46875;SDS011;32866;50.160;14.768;2023-03-01T08:31:26;34.90;;;22.43;;
46875;SDS011;32866;50.160;14.768;2023-03-01T08:33:55;32.97;;;20.07;;
46875;SDS011;32866;50.160;14.768;2023-03-01T08:36:26;34.40;;;19.30;;
46875;SDS011;32866;50.160;14.768;2023-03-01T08:38:54;35.43;;;19.10;;
46875;SDS011;32866;50.160;14.768;2023-03-01T08:41:20;38.37;;;21.53;;
46875;SDS011;32866;50.160;14.768;2023-03-01T08:43:45;34.88;;;19.25;;
46875;SDS011;32866;50.160;14.768;2023-03-01T08:46:11;33.60;;;19.15;;
46875;SDS011;32866;50.160;14.768;2023-03-01T08:48:37;31.50;;;18.07;;
46875;SDS011;32866;50.160;14.768;2023-03-01T08:53:38;34.73;;;19.30;;
46875;SDS011;32866;50.160;14.768;2023-03-01T08:56:04;31.83;;;18.57;;
46875;SDS011;32866;50.160;14.768;2023-03-01T08:58:30;30.80;;;17.60;;
46875;SDS011;32866;50.160;14.768;2023-03-01T09:00:56;36.15;;;19.40;;
46875;SDS011;32866;50.160;14.768;2023-03-01T09:03:21;27.10;;;18.10;;
46875;SDS011;32866;50.160;14.768;2023-03-01T09:05:47;33.60;;;19.15;;
46875;SDS011;32866;50.160;14.768;2023-03-01T09:08:27;34.03;;;19.33;;
46875;SDS011;32866;50.160;14.768;2023-03-01T09:10:53;28.47;;;17.70;;
46875;SDS011;32866;50.160;14.768;2023-03-01T09:13:18;31.42;;;18.50;;
46875;SDS011;32866;50.160;14.768;2023-03-01T09:15:43;35.47;;;19.40;;
46875;SDS011;32866;50.160;14.768;2023-03-01T09:18:09;33.03;;;17.65;;
46875;SDS011;32866;50.160;14.768;2023-03-01T09:20:34;35.75;;;19.33;;
46875;SDS011;32866;50.160;14.768;2023-03-01T09:22:59;32.90;;;18.95;;
46875;SDS011;32866;50.160;14.768;2023-03-01T09:25:25;33.72;;;18.65;;
46875;SDS011;32866;50.160;14.768;2023-03-01T09:27:51;28.15;;;16.95;;
46875;SDS011;32866;50.160;14.768;2023-03-01T09:32:42;30.57;;;17.30;;
46875;SDS011;32866;50.160;14.768;2023-03-01T09:35:09;27.20;;;17.70;;
46875;SDS011;32866;50.160;14.768;2023-03-01T09:40:03;28.73;;;16.75;;
46875;SDS011;32866;50.160;14.768;2023-03-01T09:42:31;31.13;;;18.00;;
46875;SDS011;32866;50.160;14.768;2023-03-01T09:45:00;29.50;;;17.03;;
46875;SDS011;32866;50.160;14.768;2023-03-01T09:47:32;31.83;;;18.60;;
46875;SDS011;32866;50.160;14.768;2023-03-01T09:52:28;33.80;;;17.23;;
46875;SDS011;32866;50.160;14.768;2023-03-01T09:55:04;28.10;;;16.63;;
46875;SDS011;32866;50.160;14.768;2023-03-01T10:03:03;26.87;;;16.03;;
46875;SDS011;32866;50.160;14.768;2023-03-01T10:05:43;23.03;;;14.73;;
46875;SDS011;32866;50.160;14.768;2023-03-01T10:10:56;28.23;;;16.67;;
46875;SDS011;32866;50.160;14.768;2023-03-01T10:16:39;22.97;;;13.80;;
46875;SDS011;32866;50.160;14.768;2023-03-01T10:19:19;23.17;;;14.50;;
46875;SDS011;32866;50.160;14.768;2023-03-01T10:21:49;23.43;;;15.03;;
46875;SDS011;32866;50.160;14.768;2023-03-01T10:24:16;24.93;;;15.70;;
46875;SDS011;32866;50.160;14.768;2023-03-01T10:26:56;25.07;;;15.33;;
46875;SDS011;32866;50.160;14.768;2023-03-01T10:29:26;26.55;;;15.70;;
46875;SDS011;32866;50.160;14.768;2023-03-01T10:31:59;22.27;;;15.32;;
46875;SDS011;32866;50.160;14.768;2023-03-01T10:34:29;24.15;;;15.30;;
46875;SDS011;32866;50.160;14.768;2023-03-01T10:36:56;23.55;;;15.07;;
46875;SDS011;32866;50.160;14.768;2023-03-01T10:39:26;23.05;;;15.18;;
46875;SDS011;32866;50.160;14.768;2023-03-01T10:42:03;22.15;;;14.68;;
46875;SDS011;32866;50.160;14.768;2023-03-01T10:44:48;21.13;;;14.20;;
46875;SDS011;32866;50.160;14.768;2023-03-01T10:47:21;25.02;;;15.20;;
46875;SDS011;32866;50.160;14.768;2023-03-01T10:49:54;20.90;;;14.73;;
46875;SDS011;32866;50.160;14.768;2023-03-01T10:55:02;23.27;;;16.10;;
46875;SDS011;32866;50.160;14.768;2023-03-01T10:57:38;22.30;;;13.65;;
46875;SDS011;32866;50.160;14.768;2023-03-01T11:03:34;20.83;;;14.38;;
46875;SDS011;32866;50.160;14.768;2023-03-01T11:05:49;20.08;;;13.70;;
46875;SDS011;32866;50.160;14.768;2023-03-01T11:11:18;17.65;;;13.15;;
46875;SDS011;32866;50.160;14.768;2023-03-01T11:13:51;20.20;;;14.35;;
46875;SDS011;32866;50.160;14.768;2023-03-01T11:18:56;22.73;;;14.43;;
46875;SDS011;32866;50.160;14.768;2023-03-01T11:24:33;20.30;;;14.10;;
46875;SDS011;32866;50.160;14.768;2023-03-01T11:27:03;21.25;;;13.75;;
46875;SDS011;32866;50.160;14.768;2023-03-01T11:29:57;18.65;;;13.40;;
46875;SDS011;32866;50.160;14.768;2023-03-01T11:32:41;22.20;;;14.80;;
46875;SDS011;32866;50.160;14.768;2023-03-01T11:35:21;19.13;;;14.20;;
46875;SDS011;32866;50.160;14.768;2023-03-01T11:37:56;19.83;;;13.73;;
46875;SDS011;32866;50.160;14.768;2023-03-01T11:48:43;17.90;;;13.05;;
46875;SDS011;32866;50.160;14.768;2023-03-01T11:55:09;20.63;;;13.15;;
46875;SDS011;32866;50.160;14.768;2023-03-01T12:00:11;18.38;;;14.43;;
46875;SDS011;32866;50.160;14.768;2023-03-01T12:11:52;19.55;;;13.30;;
46875;SDS011;32866;50.160;14.768;2023-03-01T12:14:27;21.33;;;13.30;;
46875;SDS011;32866;50.160;14.768;2023-03-01T12:25:25;16.92;;;12.25;;
46875;SDS011;32866;50.160;14.768;2023-03-01T12:36:10;20.38;;;13.43;;
46875;SDS011;32866;50.160;14.768;2023-03-01T12:38:48;15.52;;;11.85;;
46875;SDS011;32866;50.160;14.768;2023-03-01T12:49:26;18.17;;;13.10;;
46875;SDS011;32866;50.160;14.768;2023-03-01T12:51:58;17.58;;;13.07;;
46875;SDS011;32866;50.160;14.768;2023-03-01T12:54:30;16.13;;;12.45;;
46875;SDS011;32866;50.160;14.768;2023-03-01T12:56:59;17.23;;;12.95;;
46875;SDS011;32866;50.160;14.768;2023-03-01T12:59:40;18.00;;;13.35;;
46875;SDS011;32866;50.160;14.768;2023-03-01T13:02:35;17.08;;;12.45;;
46875;SDS011;32866;50.160;14.768;2023-03-01T13:05:19;15.10;;;12.32;;
46875;SDS011;32866;50.160;14.768;2023-03-01T13:13:13;18.45;;;12.52;;
46875;SDS011;32866;50.160;14.768;2023-03-01T13:15:52;18.65;;;12.90;;
46875;SDS011;32866;50.160;14.768;2023-03-01T13:33:50;18.65;;;12.70;;
46875;SDS011;32866;50.160;14.768;2023-03-01T13:44:26;17.38;;;12.40;;
46875;SDS011;32866;50.160;14.768;2023-03-01T13:46:59;17.63;;;11.75;;
46875;SDS011;32866;50.160;14.768;2023-03-01T13:49:29;19.25;;;12.32;;
46875;SDS011;32866;50.160;14.768;2023-03-01T13:52:01;18.83;;;12.35;;
46875;SDS011;32866;50.160;14.768;2023-03-01T13:54:29;20.65;;;13.05;;
46875;SDS011;32866;50.160;14.768;2023-03-01T13:56:56;18.58;;;11.88;;
46875;SDS011;32866;50.160;14.768;2023-03-01T13:59:24;21.83;;;11.68;;
46875;SDS011;32866;50.160;14.768;2023-03-01T14:01:58;18.70;;;10.70;;
46875;SDS011;32866;50.160;14.768;2023-03-01T14:04:26;16.90;;;11.00;;
46875;SDS011;32866;50.160;14.768;2023-03-01T14:07:10;16.37;;;11.10;;
46875;SDS011;32866;50.160;14.768;2023-03-01T14:09:44;15.67;;;10.40;;
46875;SDS011;32866;50.160;14.768;2023-03-01T14:20:32;16.60;;;9.17;;
46875;SDS011;32866;50.160;14.768;2023-03-01T14:23:08;12.77;;;8.90;;
46875;SDS011;32866;50.160;14.768;2023-03-01T14:25:36;15.93;;;9.20;;
46875;SDS011;32866;50.160;14.768;2023-03-01T14:30:51;15.02;;;9.60;;
46875;SDS011;32866;50.160;14.768;2023-03-01T14:35:56;16.73;;;10.63;;
46875;SDS011;32866;50.160;14.768;2023-03-01T14:38:30;14.60;;;9.83;;
46875;SDS011;32866;50.160;14.768;2023-03-01T14:41:07;16.63;;;9.90;;
46875;SDS011;32866;50.160;14.768;2023-03-01T14:43:37;16.00;;;10.48;;
46875;SDS011;32866;50.160;14.768;2023-03-01T14:46:06;15.17;;;10.97;;
46875;SDS011;32866;50.160;14.768;2023-03-01T14:48:42;14.90;;;10.13;;
46875;SDS011;32866;50.160;14.768;2023-03-01T14:51:07;17.55;;;11.10;;
46875;SDS011;32866;50.160;14.768;2023-03-01T14:53:35;17.47;;;10.67;;
46875;SDS011;32866;50.160;14.768;2023-03-01T14:58:31;14.80;;;9.47;;
46875;SDS011;32866;50.160;14.768;2023-03-01T15:00:59;15.27;;;10.63;;
46875;SDS011;32866;50.160;14.768;2023-03-01T15:06:00;14.63;;;9.90;;
46875;SDS011;32866;50.160;14.768;2023-03-01T15:08:27;14.50;;;9.87;;
46875;SDS011;32866;50.160;14.768;2023-03-01T15:13:28;15.00;;;9.80;;
46875;SDS011;32866;50.160;14.768;2023-03-01T15:16:17;14.00;;;9.83;;
46875;SDS011;32866;50.160;14.768;2023-03-01T15:18:46;15.40;;;9.27;;
46875;SDS011;32866;50.160;14.768;2023-03-01T15:23:54;17.93;;;9.37;;
46875;SDS011;32866;50.160;14.768;2023-03-01T15:26:29;17.70;;;10.13;;
46875;SDS011;32866;50.160;14.768;2023-03-01T15:28:59;15.90;;;9.73;;
46875;SDS011;32866;50.160;14.768;2023-03-01T15:31:26;16.52;;;10.05;;
46875;SDS011;32866;50.160;14.768;2023-03-01T15:45:06;16.13;;;10.67;;
46875;SDS011;32866;50.160;14.768;2023-03-01T15:47:39;19.03;;;11.10;;
46875;SDS011;32866;50.160;14.768;2023-03-01T15:50:05;20.90;;;11.63;;
46875;SDS011;32866;50.160;14.768;2023-03-01T15:53:03;17.23;;;10.87;;
46875;SDS011;32866;50.160;14.768;2023-03-01T15:55:33;20.97;;;11.73;;
46875;SDS011;32866;50.160;14.768;2023-03-01T15:57:59;21.63;;;12.00;;
46875;SDS011;32866;50.160;14.768;2023-03-01T16:00:28;20.17;;;12.93;;
46875;SDS011;32866;50.160;14.768;2023-03-01T16:02:54;22.08;;;12.55;;
46875;SDS011;32866;50.160;14.768;2023-03-01T16:05:24;23.52;;;12.65;;
46875;SDS011;32866;50.160;14.768;2023-03-01T16:07:53;22.50;;;12.93;;
46875;SDS011;32866;50.160;14.768;2023-03-01T16:10:19;23.80;;;10.43;;
46875;SDS011;32866;50.160;14.768;2023-03-01T16:12:45;24.10;;;13.73;;
46875;SDS011;32866;50.160;14.768;2023-03-01T16:15:16;26.10;;;12.67;;
46875;SDS011;32866;50.160;14.768;2023-03-01T16:17:45;24.67;;;13.17;;
46875;SDS011;32866;50.160;14.768;2023-03-01T16:20:11;20.70;;;12.60;;
46875;SDS011;32866;50.160;14.768;2023-03-01T16:22:37;23.58;;;12.27;;
46875;SDS011;32866;50.160;14.768;2023-03-01T16:25:02;21.50;;;12.38;;
46875;SDS011;32866;50.160;14.768;2023-03-01T16:27:28;22.85;;;14.63;;
46875;SDS011;32866;50.160;14.768;2023-03-01T16:29:53;26.48;;;14.25;;
46875;SDS011;32866;50.160;14.768;2023-03-01T16:32:19;28.40;;;15.50;;
46875;SDS011;32866;50.160;14.768;2023-03-01T16:34:44;29.13;;;17.65;;
46875;SDS011;32866;50.160;14.768;2023-03-01T16:37:12;36.87;;;19.33;;
46875;SDS011;32866;50.160;14.768;2023-03-01T16:39:38;37.65;;;18.63;;
46875;SDS011;32866;50.160;14.768;2023-03-01T16:42:03;36.70;;;19.25;;
46875;SDS011;32866;50.160;14.768;2023-03-01T16:44:29;28.80;;;15.20;;
46875;SDS011;32866;50.160;14.768;2023-03-01T16:46:54;32.95;;;16.13;;
46875;SDS011;32866;50.160;14.768;2023-03-01T16:49:20;28.38;;;14.80;;
46875;SDS011;32866;50.160;14.768;2023-03-01T16:51:45;25.08;;;14.75;;
46875;SDS011;32866;50.160;14.768;2023-03-01T16:54:10;29.88;;;14.15;;
46875;SDS011;32866;50.160;14.768;2023-03-01T16:56:36;30.35;;;14.75;;
46875;SDS011;32866;50.160;14.768;2023-03-01T16:59:03;29.93;;;14.77;;
46875;SDS011;32866;50.160;14.768;2023-03-01T17:01:28;26.88;;;13.65;;
46875;SDS011;32866;50.160;14.768;2023-03-01T17:04:02;25.40;;;13.57;;
46875;SDS011;32866;50.160;14.768;2023-03-01T17:06:28;25.27;;;13.70;;
46875;SDS011;32866;50.160;14.768;2023-03-01T17:08:54;24.38;;;13.45;;
46875;SDS011;32866;50.160;14.768;2023-03-01T17:11:20;30.30;;;13.63;;
46875;SDS011;32866;50.160;14.768;2023-03-01T17:13:45;22.98;;;13.75;;
46875;SDS011;32866;50.160;14.768;2023-03-01T17:16:13;24.37;;;13.73;;
46875;SDS011;32866;50.160;14.768;2023-03-01T17:18:40;21.00;;;11.77;;
46875;SDS011;32866;50.160;14.768;2023-03-01T17:21:06;23.48;;;13.27;;
46875;SDS011;32866;50.160;14.768;2023-03-01T17:23:33;17.97;;;11.60;;
46875;SDS011;32866;50.160;14.768;2023-03-01T17:26:00;24.00;;;14.27;;
46875;SDS011;32866;50.160;14.768;2023-03-01T17:28:26;37.38;;;19.25;;
46875;SDS011;32866;50.160;14.768;2023-03-01T17:30:54;45.53;;;23.17;;
46875;SDS011;32866;50.160;14.768;2023-03-01T17:33:20;46.00;;;24.23;;
46875;SDS011;32866;50.160;14.768;2023-03-01T17:35:46;48.28;;;25.20;;
46875;SDS011;32866;50.160;14.768;2023-03-01T17:38:14;59.63;;;28.05;;
46875;SDS011;32866;50.160;14.768;2023-03-01T17:40:40;55.67;;;27.43;;
46875;SDS011;32866;50.160;14.768;2023-03-01T17:43:07;54.93;;;27.77;;
46875;SDS011;32866;50.160;14.768;2023-03-01T17:45:35;59.10;;;29.43;;
46875;SDS011;32866;50.160;14.768;2023-03-01T17:48:01;49.03;;;25.17;;
46875;SDS011;32866;50.160;14.768;2023-03-01T17:50:27;52.22;;;23.55;;
46875;SDS011;32866;50.160;14.768;2023-03-01T17:52:52;44.88;;;23.35;;
46875;SDS011;32866;50.160;14.768;2023-03-01T17:55:19;57.63;;;28.07;;
46875;SDS011;32866;50.160;14.768;2023-03-01T17:57:45;53.55;;;25.83;;
46875;SDS011;32866;50.160;14.768;2023-03-01T18:00:11;67.30;;;31.70;;
46875;SDS011;32866;50.160;14.768;2023-03-01T18:02:38;66.37;;;31.80;;
46875;SDS011;32866;50.160;14.768;2023-03-01T18:05:03;66.55;;;31.35;;
46875;SDS011;32866;50.160;14.768;2023-03-01T18:07:29;51.15;;;27.42;;